Time;durP1;ratioP1;P1;durP2;ratioP2;P2;SDS_P1;SDS_P2;PMS_P1;PMS_P2;Temp;Humidity;BMP_temperature;BMP_pressure;BME280_temperature;BME280_humidity;BME280_pressure;Samples;Min_cycle;Max_cycle;Signal;HPM_P1;HPM_P2
2022/06/01 00:01:44;;;;;;;1.95;0.77;;;18.40;40.30;;;;;;2345858;53;23097;-72
2022/06/01 00:04:10;;;;;;;1.52;0.65;;;18.40;40.40;;;;;;2338359;54;21424;-74
2022/06/01 00:06:37;;;;;;;3.55;1.15;;;18.40;40.50;;;;;;2442970;53;21023;-73
2022/06/01 00:09:04;;;;;;;1.50;0.60;;;18.40;40.60;;;;;;2588227;53;20932;-74
2022/06/01 00:11:30;;;;;;;1.67;0.80;;;18.30;40.50;;;;;;2441441;53;20996;-74
2022/06/01 00:13:57;;;;;;;2.12;0.70;;;18.30;40.60;;;;;;2340670;54;20920;-74
2022/06/01 00:16:24;;;;;;;2.80;0.65;;;18.30;40.60;;;;;;2345273;53;20928;-75
2022/06/01 00:18:51;;;;;;;1.30;0.65;;;18.30;40.70;;;;;;2324677;54;21307;-72
2022/06/01 00:21:17;;;;;;;3.12;1.00;;;18.30;40.70;;;;;;2344810;53;20963;-75
2022/06/01 00:23:44;;;;;;;3.85;0.82;;;18.20;40.70;;;;;;2516684;53;20979;-72
2022/06/01 00:26:10;;;;;;;1.92;0.60;;;18.20;40.70;;;;;;2341039;54;20936;-73
2022/06/01 00:28:36;;;;;;;1.48;0.65;;;18.20;40.80;;;;;;2418447;53;20956;-73
2022/06/01 00:31:03;;;;;;;1.48;0.70;;;18.10;40.80;;;;;;2341191;54;21000;-74
2022/06/01 00:33:30;;;;;;;1.70;0.70;;;18.10;40.90;;;;;;2344118;53;21447;-73
2022/06/01 00:35:56;;;;;;;2.37;0.70;;;18.10;40.90;;;;;;2421759;53;20956;-73
2022/06/01 00:38:22;;;;;;;3.03;0.80;;;18.10;41.00;;;;;;2382981;53;21271;-74
2022/06/01 00:40:49;;;;;;;1.80;0.62;;;18.10;41.10;;;;;;2346799;53;20912;-73
2022/06/01 00:43:49;;;;;;;1.55;0.70;;;18.10;41.10;;;;;;2340822;54;21487;-73
2022/06/01 00:46:15;;;;;;;1.83;0.93;;;18.10;41.50;;;;;;2344584;53;20937;-74
2022/06/01 00:48:44;;;;;;;1.83;0.60;;;18.10;41.20;;;;;;2587059;53;21425;-73
2022/06/01 00:51:11;;;;;;;3.15;0.80;;;18.10;41.20;;;;;;2340869;54;21007;-74
2022/06/01 00:53:37;;;;;;;3.40;0.80;;;18.10;41.20;;;;;;2341024;54;21484;-72
2022/06/01 00:56:06;;;;;;;1.98;0.77;;;18.10;41.30;;;;;;2341014;54;20924;-72
2022/06/01 00:58:37;;;;;;;1.95;0.65;;;18.10;41.40;;;;;;2340710;54;20948;-73
2022/06/01 01:01:04;;;;;;;1.80;0.60;;;18.10;41.40;;;;;;2341684;54;21011;-72
2022/06/01 01:03:35;;;;;;;1.60;0.70;;;18.10;41.30;;;;;;2586421;53;20916;-74
2022/06/01 01:06:13;;;;;;;2.25;0.80;;;18.10;41.40;;;;;;2527028;53;21015;-73
2022/06/01 01:08:40;;;;;;;2.62;0.93;;;18.10;41.60;;;;;;2341281;54;20932;-72
2022/06/01 01:11:07;;;;;;;1.50;0.60;;;18.10;41.60;;;;;;2590817;53;21392;-72
2022/06/01 01:13:34;;;;;;;2.50;0.90;;;18.10;41.70;;;;;;2351793;53;20966;-72
2022/06/01 01:16:00;;;;;;;2.28;0.77;;;18.10;41.80;;;;;;2341842;53;20952;-72
2022/06/01 01:18:29;;;;;;;1.20;0.60;;;18.10;41.90;;;;;;2341783;53;20972;-72
2022/06/01 01:25:38;;;;;;;1.70;0.60;;;18.10;42.00;;;;;;2448585;53;20959;-72
2022/06/01 01:28:05;;;;;;;1.52;0.57;;;18.10;42.00;;;;;;2344333;54;20944;-74
2022/06/01 01:30:44;;;;;;;1.02;0.50;;;18.20;41.50;;;;;;2341289;54;20995;-74
2022/06/01 01:33:15;;;;;;;2.08;0.75;;;18.10;41.80;;;;;;2400011;53;21532;-73
2022/06/01 01:35:42;;;;;;;1.77;0.70;;;18.10;41.70;;;;;;2348069;53;20907;-73
2022/06/01 01:38:11;;;;;;;1.95;0.70;;;18.10;41.70;;;;;;2341666;53;21051;-73
2022/06/01 01:40:37;;;;;;;1.73;0.77;;;18.10;41.90;;;;;;2341080;54;20952;-72
2022/06/01 01:43:07;;;;;;;1.40;0.62;;;18.10;41.90;;;;;;2414432;53;20951;-74
2022/06/01 01:45:36;;;;;;;1.85;0.73;;;18.10;41.90;;;;;;2341411;54;20956;-73
2022/06/01 01:48:03;;;;;;;2.08;0.85;;;18.10;41.90;;;;;;2344605;54;20968;-73
2022/06/01 01:50:29;;;;;;;1.17;0.57;;;18.10;41.90;;;;;;2341162;54;21059;-73
2022/06/01 01:52:55;;;;;;;1.77;0.70;;;18.10;41.90;;;;;;2346845;53;21052;-73
2022/06/01 01:57:03;;;;;;;2.22;0.80;;;18.10;41.90;;;;;;2341070;54;20959;-73
2022/06/01 01:59:42;;;;;;;1.35;0.68;;;18.10;42.20;;;;;;2340635;54;21460;-73
2022/06/01 02:02:40;;;;;;;1.33;0.60;;;18.10;42.00;;;;;;2341390;54;21377;-72
2022/06/01 02:08:58;;;;;;;1.55;0.70;;;18.10;42.10;;;;;;2346828;53;20994;-74
2022/06/01 02:14:38;;;;;;;1.62;0.73;;;18.00;42.00;;;;;;2341269;54;21814;-73
2022/06/01 02:17:14;;;;;;;1.60;0.70;;;18.00;42.00;;;;;;2329207;54;21401;-74
2022/06/01 02:19:53;;;;;;;1.60;0.73;;;18.00;42.00;;;;;;2344979;53;21023;-73
2022/06/01 02:22:20;;;;;;;1.92;0.70;;;17.90;42.30;;;;;;2587468;53;20988;-75
2022/06/01 02:24:47;;;;;;;2.20;0.95;;;17.90;42.20;;;;;;2340715;54;21449;-74
2022/06/01 02:27:14;;;;;;;1.70;0.70;;;17.90;42.30;;;;;;2341734;54;20944;-74
2022/06/01 02:29:53;;;;;;;1.30;0.60;;;17.80;42.10;;;;;;2346914;53;21428;-72
2022/06/01 02:32:19;;;;;;;2.15;0.90;;;17.80;42.40;;;;;;2341418;53;20999;-74
2022/06/01 02:34:51;;;;;;;1.95;0.80;;;17.80;42.20;;;;;;2587634;53;20913;-72
2022/06/01 02:37:17;;;;;;;1.60;0.68;;;17.80;42.60;;;;;;2588603;53;20897;-73
2022/06/01 02:39:46;;;;;;;1.70;0.70;;;17.70;42.30;;;;;;2342743;53;20952;-73
2022/06/01 02:42:26;;;;;;;1.87;0.73;;;17.70;42.40;;;;;;2340222;53;20940;-72
2022/06/01 02:44:56;;;;;;;1.92;0.60;;;17.70;42.40;;;;;;2341158;54;21011;-74
2022/06/01 02:47:22;;;;;;;1.40;0.70;;;17.60;42.40;;;;;;2341204;54;21326;-72
2022/06/01 02:49:49;;;;;;;2.20;0.80;;;17.60;43.00;;;;;;2429315;53;20941;-74
2022/06/01 02:52:15;;;;;;;1.85;0.77;;;17.60;42.50;;;;;;2589984;53;20904;-73
2022/06/01 02:54:41;;;;;;;1.30;0.60;;;17.50;42.50;;;;;;2590670;53;21472;-73
2022/06/01 02:57:08;;;;;;;1.67;0.70;;;17.50;42.60;;;;;;2349031;53;20975;-74
2022/06/01 02:59:34;;;;;;;1.80;0.80;;;17.50;42.70;;;;;;2342419;53;20995;-73
2022/06/01 03:02:00;;;;;;;1.90;0.77;;;17.50;42.80;;;;;;2343415;53;20952;-73
2022/06/01 03:04:27;;;;;;;2.80;0.70;;;17.40;42.80;;;;;;2346842;53;20927;-74
2022/06/01 03:06:55;;;;;;;2.08;0.70;;;17.40;42.90;;;;;;2341688;53;21000;-73
2022/06/01 03:09:32;;;;;;;1.77;0.70;;;17.40;43.00;;;;;;2341684;53;21528;-74
2022/06/01 03:11:58;;;;;;;2.20;0.80;;;17.40;43.00;;;;;;2584917;53;21424;-73
2022/06/01 03:14:24;;;;;;;1.87;0.80;;;17.30;43.10;;;;;;2345807;53;20919;-74
2022/06/01 03:16:51;;;;;;;2.62;0.88;;;17.30;43.30;;;;;;2341323;53;21335;-73
2022/06/01 03:19:18;;;;;;;2.12;0.90;;;17.30;43.40;;;;;;2340680;54;21576;-73
2022/06/01 03:21:44;;;;;;;1.77;0.80;;;17.30;43.40;;;;;;2341455;54;20932;-74
2022/06/01 03:24:10;;;;;;;3.22;1.00;;;17.20;43.40;;;;;;2341035;54;20980;-72
2022/06/01 03:26:36;;;;;;;2.25;1.10;;;17.20;43.60;;;;;;2341130;54;21516;-73
2022/06/01 03:29:05;;;;;;;2.85;1.02;;;17.20;43.70;;;;;;2346773;53;20978;-73
2022/06/01 03:31:32;;;;;;;2.20;0.80;;;17.20;43.80;;;;;;2586694;53;21551;-73
2022/06/01 03:33:58;;;;;;;1.92;0.88;;;17.20;43.90;;;;;;2341266;54;20952;-73
2022/06/01 03:36:25;;;;;;;2.25;0.80;;;17.20;44.00;;;;;;2341164;54;20916;-72
2022/06/01 03:38:52;;;;;;;1.52;0.70;;;17.20;44.20;;;;;;2340970;54;21012;-73
2022/06/01 03:41:18;;;;;;;2.10;0.90;;;17.20;44.30;;;;;;2345890;53;20963;-74
2022/06/01 03:46:32;;;;;;;1.95;0.85;;;17.20;44.50;;;;;;2346471;53;21010;-74
2022/06/01 03:48:58;;;;;;;2.30;0.90;;;17.20;44.50;;;;;;2396238;53;20955;-73
2022/06/01 03:51:26;;;;;;;2.33;1.10;;;17.20;44.50;;;;;;2346855;53;21719;-72
2022/06/01 03:53:54;;;;;;;3.37;0.80;;;17.20;44.60;;;;;;2449780;53;21787;-73
2022/06/01 03:56:23;;;;;;;1.75;0.73;;;17.20;44.60;;;;;;2341689;54;20944;-74
2022/06/01 03:58:52;;;;;;;2.95;0.95;;;17.20;44.60;;;;;;2340787;53;20992;-75
2022/06/01 04:01:19;;;;;;;2.45;0.93;;;17.20;44.80;;;;;;2341382;54;20952;-74
2022/06/01 04:03:46;;;;;;;3.42;0.95;;;17.30;44.80;;;;;;2340844;54;20948;-74
2022/06/01 04:06:13;;;;;;;5.72;1.77;;;17.30;44.80;;;;;;2492601;53;21006;-72
2022/06/01 04:08:40;;;;;;;5.05;1.80;;;17.30;44.90;;;;;;2353304;53;21027;-73
2022/06/01 04:11:07;;;;;;;5.00;1.90;;;17.30;45.00;;;;;;2346347;53;21393;-73
2022/06/01 04:13:36;;;;;;;4.37;1.62;;;17.30;45.00;;;;;;2344053;53;20990;-73
2022/06/01 04:16:03;;;;;;;2.85;1.30;;;17.30;45.20;;;;;;2341037;54;20941;-72
2022/06/01 04:18:35;;;;;;;3.37;1.25;;;17.30;45.30;;;;;;2343379;54;22005;-74
2022/06/01 04:21:03;;;;;;;3.03;1.10;;;17.30;45.20;;;;;;2542504;53;20982;-74
2022/06/01 04:23:30;;;;;;;3.03;1.00;;;17.30;45.20;;;;;;2325383;54;21706;-73
2022/06/01 04:25:57;;;;;;;2.92;1.20;;;17.30;45.20;;;;;;2354448;53;20939;-72
2022/06/01 04:28:24;;;;;;;3.92;1.70;;;17.30;45.40;;;;;;2348541;53;21031;-74
2022/06/01 04:30:50;;;;;;;3.60;1.35;;;17.30;45.40;;;;;;2346445;53;20927;-74
2022/06/01 04:33:17;;;;;;;2.78;1.20;;;17.40;45.60;;;;;;2342298;53;20987;-74
2022/06/01 04:35:43;;;;;;;2.00;1.10;;;17.30;45.40;;;;;;2423700;53;21436;-74
2022/06/01 04:38:14;;;;;;;3.05;1.10;;;17.40;45.50;;;;;;2589101;53;21015;-73
2022/06/01 04:40:45;;;;;;;2.58;1.10;;;17.40;45.60;;;;;;2343015;53;20936;-73
2022/06/01 04:43:16;;;;;;;3.28;1.30;;;17.40;45.50;;;;;;2422431;53;21051;-72
2022/06/01 04:45:42;;;;;;;1.95;0.90;;;17.40;45.70;;;;;;2346428;53;21896;-74
2022/06/01 04:48:09;;;;;;;2.30;1.10;;;17.40;45.60;;;;;;2342478;53;21078;-74
2022/06/01 04:50:42;;;;;;;3.47;1.00;;;17.40;45.60;;;;;;2340976;54;21871;-73
2022/06/01 04:53:12;;;;;;;3.47;1.60;;;17.40;45.60;;;;;;2351692;53;21483;-74
2022/06/01 04:55:39;;;;;;;2.47;0.93;;;17.40;45.70;;;;;;2347317;53;20983;-73
2022/06/01 04:58:05;;;;;;;1.73;0.80;;;17.40;45.60;;;;;;2342847;53;21809;-73
2022/06/01 05:00:33;;;;;;;2.45;1.20;;;17.40;45.60;;;;;;2586547;53;20929;-72
2022/06/01 05:03:00;;;;;;;2.72;1.10;;;17.40;45.70;;;;;;2345985;53;21398;-73
2022/06/01 05:05:26;;;;;;;1.92;1.02;;;17.40;45.70;;;;;;2347996;53;20967;-72
2022/06/01 05:07:53;;;;;;;2.47;1.20;;;17.40;45.70;;;;;;2513264;53;20947;-72
2022/06/01 05:10:22;;;;;;;3.15;1.30;;;17.40;45.80;;;;;;2342349;53;20961;-75
2022/06/01 05:12:49;;;;;;;2.08;1.00;;;17.40;46.00;;;;;;2341418;54;21693;-73
2022/06/01 05:15:15;;;;;;;2.47;1.30;;;17.40;46.00;;;;;;2346268;53;20932;-74
2022/06/01 05:17:41;;;;;;;2.17;1.10;;;17.40;46.00;;;;;;2342719;53;21579;-72
2022/06/01 05:20:10;;;;;;;3.05;1.33;;;17.40;46.00;;;;;;2346907;53;21994;-73
2022/06/01 05:22:36;;;;;;;3.30;1.30;;;17.40;46.20;;;;;;2341678;53;21007;-73
2022/06/01 05:25:05;;;;;;;2.75;1.25;;;17.40;46.30;;;;;;2341397;54;21036;-74
2022/06/01 05:27:32;;;;;;;3.15;1.30;;;17.40;46.40;;;;;;2341640;54;20944;-74
2022/06/01 05:29:58;;;;;;;2.50;1.08;;;17.40;46.40;;;;;;2341518;54;20944;-74
2022/06/01 05:32:24;;;;;;;2.92;1.02;;;17.40;46.40;;;;;;2341142;54;20995;-72
2022/06/01 05:34:50;;;;;;;2.33;1.20;;;17.50;46.50;;;;;;2341271;54;20991;-73
2022/06/01 05:37:17;;;;;;;3.20;1.30;;;17.50;46.50;;;;;;2342062;53;20939;-74
2022/06/01 05:39:43;;;;;;;2.72;1.33;;;17.50;46.50;;;;;;2373961;53;21000;-73
2022/06/01 05:42:11;;;;;;;2.90;1.27;;;17.50;46.60;;;;;;2341553;54;21032;-74
2022/06/01 05:44:37;;;;;;;5.72;2.00;;;17.50;46.60;;;;;;2354070;53;20960;-74
2022/06/01 05:47:04;;;;;;;2.85;1.42;;;17.60;46.90;;;;;;2341330;54;20944;-73
2022/06/01 05:49:30;;;;;;;4.72;1.80;;;17.60;47.00;;;;;;2346385;53;20927;-73
2022/06/01 05:51:56;;;;;;;4.25;2.17;;;17.60;47.00;;;;;;2341773;54;20932;-72
2022/06/01 05:54:25;;;;;;;5.45;2.70;;;17.60;47.00;;;;;;2341324;54;20952;-74
2022/06/01 05:56:52;;;;;;;5.37;2.62;;;17.70;47.20;;;;;;2345022;54;20924;-72
2022/06/01 05:59:21;;;;;;;5.45;2.42;;;17.70;47.10;;;;;;2352004;53;20983;-73
2022/06/01 06:01:47;;;;;;;4.82;2.25;;;17.80;47.30;;;;;;2348223;53;21018;-74
2022/06/01 06:04:13;;;;;;;5.47;1.90;;;17.80;47.40;;;;;;2349178;53;21851;-73
2022/06/01 06:06:39;;;;;;;2.37;1.20;;;17.80;47.40;;;;;;2341170;54;20924;-73
2022/06/01 06:09:07;;;;;;;3.00;1.70;;;17.90;47.50;;;;;;2341895;54;21027;-73
2022/06/01 06:11:36;;;;;;;2.58;1.20;;;17.90;47.70;;;;;;2587631;53;21035;-74
2022/06/01 06:14:03;;;;;;;4.30;1.27;;;18.00;47.90;;;;;;2346752;53;20967;-74
2022/06/01 06:16:31;;;;;;;4.00;1.45;;;18.00;47.90;;;;;;2587377;53;20952;-73
2022/06/01 06:18:57;;;;;;;3.08;1.37;;;18.10;48.10;;;;;;2480268;53;21027;-73
2022/06/01 06:21:35;;;;;;;3.40;1.40;;;18.10;48.30;;;;;;2341147;54;20952;-72
2022/06/01 06:24:14;;;;;;;2.85;1.20;;;18.20;48.90;;;;;;2350628;53;21653;-74
2022/06/01 06:26:42;;;;;;;4.25;1.33;;;18.30;48.90;;;;;;2334041;53;20990;-73
2022/06/01 06:29:11;;;;;;;4.40;1.10;;;18.40;48.70;;;;;;2410874;53;20928;-73
2022/06/01 06:31:38;;;;;;;2.30;1.00;;;18.40;48.80;;;;;;2585469;53;20956;-73
2022/06/01 06:34:07;;;;;;;4.50;1.08;;;18.50;48.90;;;;;;2341303;53;21007;-72
2022/06/01 06:36:34;;;;;;;2.55;1.15;;;18.60;49.00;;;;;;2341714;54;21079;-75
2022/06/01 06:39:00;;;;;;;2.90;1.12;;;18.70;49.20;;;;;;2341569;54;20951;-72
2022/06/01 06:41:26;;;;;;;4.35;1.10;;;18.80;49.20;;;;;;2340780;53;21832;-72
2022/06/01 06:43:53;;;;;;;2.50;1.08;;;18.90;49.20;;;;;;2341158;54;20914;-73
2022/06/01 06:46:20;;;;;;;2.62;1.10;;;19.00;49.20;;;;;;2341284;54;21425;-72
2022/06/01 06:49:00;;;;;;;;;;;;;;;;;;;;;
2022/06/01 06:51:28;;;;;;;2.78;1.27;;;19.10;49.40;;;;;;2338462;54;21468;-73
2022/06/01 06:53:55;;;;;;;2.40;1.10;;;19.30;49.30;;;;;;2342861;53;21020;-73
2022/06/01 06:56:21;;;;;;;6.03;1.40;;;19.40;49.30;;;;;;2343324;53;21698;-72
2022/06/01 06:58:47;;;;;;;3.40;1.10;;;19.50;49.30;;;;;;2341070;54;20904;-75
2022/06/01 07:01:14;;;;;;;3.28;1.30;;;19.60;49.40;;;;;;2341393;54;21580;-73
2022/06/01 07:03:40;;;;;;;2.95;1.20;;;19.70;49.40;;;;;;2337246;54;20992;-73
2022/06/01 07:06:13;;;;;;;2.33;1.00;;;19.90;49.40;;;;;;2464848;53;21718;-73
2022/06/01 07:08:46;;;;;;;2.03;0.95;;;20.00;49.40;;;;;;2341517;54;21434;-73
2022/06/01 07:11:13;;;;;;;2.85;1.30;;;20.10;49.60;;;;;;2360050;53;20948;-73
2022/06/01 07:13:39;;;;;;;3.20;1.10;;;20.20;49.40;;;;;;2587473;53;20948;-73
2022/06/01 07:16:09;;;;;;;3.40;1.23;;;20.30;49.50;;;;;;2341469;54;20976;-70
2022/06/01 07:18:36;;;;;;;3.62;1.30;;;20.40;50.10;;;;;;2471406;53;20960;-71
2022/06/01 07:21:03;;;;;;;3.65;1.40;;;20.60;49.40;;;;;;2347752;53;20958;-72
2022/06/01 07:23:32;;;;;;;2.92;1.40;;;20.70;49.40;;;;;;2340643;53;20940;-71
2022/06/01 07:25:58;;;;;;;2.67;1.10;;;20.80;49.30;;;;;;2341417;54;20924;-71
2022/06/01 07:28:24;;;;;;;2.95;1.30;;;21.00;49.30;;;;;;2341520;54;20920;-70
2022/06/01 07:30:56;;;;;;;2.37;1.08;;;21.10;49.30;;;;;;2350751;53;20927;-70
2022/06/01 07:33:28;;;;;;;3.35;1.30;;;21.20;49.10;;;;;;2345246;53;20956;-73
2022/06/01 07:35:57;;;;;;;2.08;0.82;;;21.30;49.00;;;;;;2395359;53;20980;-73
2022/06/01 07:44:05;;;;;;;1.98;0.95;;;21.70;48.90;;;;;;2339053;53;20940;-71
2022/06/01 07:46:35;;;;;;;2.10;0.95;;;21.80;48.80;;;;;;2339703;53;20949;-71
2022/06/01 07:49:02;;;;;;;3.42;1.15;;;21.90;48.70;;;;;;2329599;54;21007;-71
2022/06/01 07:51:58;;;;;;;1.85;0.90;;;22.00;48.60;;;;;;2452331;53;20980;-70
2022/06/01 07:54:24;;;;;;;5.05;1.17;;;22.20;48.60;;;;;;2587283;53;21461;-71
2022/06/01 07:56:50;;;;;;;2.40;1.10;;;22.30;48.40;;;;;;2341510;54;20968;-71
2022/06/01 07:59:17;;;;;;;2.10;0.85;;;22.40;48.30;;;;;;2340972;54;21008;-71
2022/06/01 08:01:46;;;;;;;3.03;1.08;;;22.60;48.30;;;;;;2341267;54;21663;-70
2022/06/01 08:04:13;;;;;;;2.10;1.05;;;22.70;48.10;;;;;;2346792;53;21034;-70
2022/06/01 08:06:39;;;;;;;2.65;1.30;;;22.80;48.10;;;;;;2341377;53;21035;-70
2022/06/01 08:09:20;;;;;;;1.98;0.80;;;22.90;48.00;;;;;;2404358;53;21056;-74
2022/06/01 08:14:34;;;;;;;2.60;1.00;;;23.00;47.80;;;;;;2340581;54;20944;-72
2022/06/01 08:17:00;;;;;;;3.53;1.23;;;23.10;47.60;;;;;;2341683;54;21401;-72
2022/06/01 08:19:27;;;;;;;2.10;0.90;;;23.20;47.30;;;;;;2341135;54;21000;-73
2022/06/01 08:21:53;;;;;;;2.80;0.93;;;23.40;47.30;;;;;;2345844;53;20944;-70
2022/06/01 08:24:22;;;;;;;2.12;0.95;;;23.40;47.20;;;;;;2342849;53;20936;-71
2022/06/01 08:26:49;;;;;;;3.17;1.10;;;23.50;47.10;;;;;;2341173;54;21027;-71
2022/06/01 08:29:15;;;;;;;1.77;0.88;;;23.60;47.00;;;;;;2345672;53;20986;-71
2022/06/01 08:31:41;;;;;;;2.30;1.00;;;23.70;47.00;;;;;;2353053;53;20994;-71
2022/06/01 08:34:08;;;;;;;3.00;0.95;;;23.80;46.80;;;;;;2348402;53;21399;-70
2022/06/01 08:36:35;;;;;;;2.62;1.00;;;23.80;46.60;;;;;;2343102;53;20963;-73
2022/06/01 08:39:01;;;;;;;2.12;0.90;;;23.90;46.40;;;;;;2589441;53;21223;-74
2022/06/01 08:41:32;;;;;;;2.92;1.20;;;23.90;46.10;;;;;;2341782;53;21023;-72
2022/06/01 08:44:00;;;;;;;2.03;0.90;;;24.00;46.00;;;;;;2587036;53;20992;-72
2022/06/01 08:46:26;;;;;;;1.85;0.90;;;24.10;45.90;;;;;;2341023;54;21913;-70
2022/06/01 08:49:00;;;;;;;4.55;1.10;;;24.10;45.70;;;;;;2341118;54;20940;-72
2022/06/01 08:51:28;;;;;;;3.30;0.95;;;24.20;45.40;;;;;;2346464;53;21488;-71
2022/06/01 08:53:57;;;;;;;3.87;1.10;;;24.20;45.50;;;;;;2353256;53;21097;-73
2022/06/01 08:56:35;;;;;;;2.95;0.90;;;24.30;45.60;;;;;;2344439;53;20985;-72
2022/06/01 09:04:46;;;;;;;1.65;0.73;;;24.30;45.30;;;;;;2346110;53;21023;-73
2022/06/01 09:09:10;;;;;;;1.58;0.60;;;24.50;45.30;;;;;;2390808;54;21445;-71
2022/06/01 09:11:39;;;;;;;1.45;0.70;;;24.70;44.70;;;;;;2341099;54;21766;-71
2022/06/01 09:14:19;;;;;;;4.22;0.70;;;24.70;44.60;;;;;;2342149;54;20936;-70
2022/06/01 09:16:49;;;;;;;1.52;0.60;;;24.80;43.70;;;;;;2346678;53;21062;-71
2022/06/01 09:19:30;;;;;;;1.92;0.90;;;24.80;43.50;;;;;;2383314;53;21757;-73
2022/06/01 09:24:48;;;;;;;1.40;0.60;;;24.90;42.80;;;;;;2343972;53;20996;-70
2022/06/01 09:27:15;;;;;;;1.40;0.60;;;25.00;42.60;;;;;;2348152;53;21103;-70
2022/06/01 09:29:51;;;;;;;1.90;0.70;;;25.00;42.20;;;;;;2341264;54;21007;-70
2022/06/01 09:32:31;;;;;;;1.62;0.77;;;25.10;41.50;;;;;;2347610;53;21446;-74
2022/06/01 09:35:07;;;;;;;2.45;0.80;;;25.10;41.20;;;;;;2343047;53;21063;-68
2022/06/01 09:37:46;;;;;;;1.70;0.60;;;25.20;41.40;;;;;;2345978;53;20994;-72
2022/06/01 09:40:31;;;;;;;1.52;0.73;;;25.20;40.50;;;;;;2341852;53;21735;-72
2022/06/01 09:43:00;;;;;;;2.92;0.50;;;25.30;40.10;;;;;;2341540;54;20924;-70
2022/06/01 09:45:53;;;;;;;2.33;0.82;;;25.30;40.80;;;;;;2340348;54;20959;-69
2022/06/01 09:48:34;;;;;;;1.77;0.60;;;25.40;40.70;;;;;;2329564;54;20939;-70
2022/06/01 09:51:18;;;;;;;1.67;0.60;;;25.50;40.00;;;;;;2346584;53;21104;-70
2022/06/01 09:53:50;;;;;;;1.35;0.57;;;25.50;39.80;;;;;;2342591;53;20939;-73
2022/06/01 09:56:47;;;;;;;2.00;0.65;;;25.50;40.20;;;;;;2341589;54;20944;-70
2022/06/01 10:08:15;;;;;;;1.15;0.60;;;25.80;38.80;;;;;;2588490;53;21019;-70
2022/06/01 10:11:40;;;;;;;1.92;0.70;;;25.90;39.30;;;;;;2341181;54;21059;-70
2022/06/01 10:14:30;;;;;;;1.77;0.60;;;25.90;38.60;;;;;;2341483;54;20947;-70
2022/06/01 10:17:27;;;;;;;1.50;0.70;;;26.00;39.00;;;;;;2341595;54;21000;-69
2022/06/01 10:23:28;;;;;;;1.45;0.68;;;26.00;38.80;;;;;;2341946;54;20933;-71
2022/06/01 10:25:57;;;;;;;2.70;0.62;;;26.10;39.20;;;;;;2341909;54;21775;-71
2022/06/01 10:29:32;;;;;;;2.25;0.70;;;26.20;39.50;;;;;;2566258;53;21023;-72
2022/06/01 10:32:05;;;;;;;2.12;0.52;;;26.30;38.90;;;;;;2341487;54;21007;-70
2022/06/01 10:35:55;;;;;;;1.87;0.60;;;26.30;39.10;;;;;;2588200;53;21011;-69
2022/06/01 10:38:30;;;;;;;3.25;0.65;;;26.30;39.30;;;;;;2342033;54;20952;-71
2022/06/01 10:41:10;;;;;;;1.60;0.80;;;26.40;38.70;;;;;;2506678;53;20992;-73
2022/06/01 10:44:25;;;;;;;2.75;0.82;;;26.50;38.40;;;;;;2341230;54;20952;-73
2022/06/01 10:47:14;;;;;;;1.27;0.60;;;26.50;38.20;;;;;;2325682;54;20980;-69
2022/06/01 10:52:29;;;;;;;1.60;0.62;;;26.60;37.90;;;;;;2347069;53;20899;-70
2022/06/01 10:55:03;;;;;;;3.10;0.60;;;26.70;38.20;;;;;;2341717;54;21449;-70
2022/06/01 10:57:30;;;;;;;1.60;0.60;;;26.70;37.90;;;;;;2383959;53;20943;-73
2022/06/01 10:59:56;;;;;;;1.70;0.60;;;26.70;37.80;;;;;;2588131;53;21016;-70
2022/06/01 11:02:53;;;;;;;2.60;0.70;;;26.80;37.50;;;;;;2340925;54;21028;-71
2022/06/01 11:05:46;;;;;;;1.90;0.80;;;26.80;36.40;;;;;;2550948;53;20923;-70
2022/06/01 11:08:39;;;;;;;1.77;0.60;;;26.80;36.10;;;;;;2341045;53;20968;-69
2022/06/01 11:11:18;;;;;;;1.30;0.50;;;26.90;35.70;;;;;;2460226;53;1769336;-70
2022/06/01 11:14:13;;;;;;;3.35;0.68;;;26.90;35.50;;;;;;2341262;54;20967;-73
2022/06/01 11:17:17;;;;;;;1.65;0.57;;;26.90;35.00;;;;;;2345232;53;21719;-70
2022/06/01 11:21:35;;;;;;;1.23;0.50;;;26.90;35.10;;;;;;2346093;53;20992;-70
2022/06/01 11:27:51;;;;;;;0.90;0.50;;;26.90;34.90;;;;;;2340518;53;20940;-70
2022/06/01 11:30:24;;;;;;;2.45;0.60;;;26.90;35.70;;;;;;2341076;54;20962;-72
2022/06/01 11:33:03;;;;;;;2.70;0.52;;;26.80;35.60;;;;;;2341641;54;20920;-69
2022/06/01 11:35:43;;;;;;;1.50;0.50;;;26.90;35.30;;;;;;2340702;54;21857;-71
2022/06/01 11:38:44;;;;;;;2.40;0.50;;;26.90;35.30;;;;;;2587157;53;21021;-70
2022/06/01 11:41:24;;;;;;;1.50;0.52;;;26.90;34.60;;;;;;2341806;53;21488;-71
2022/06/01 11:44:00;;;;;;;1.80;0.68;;;27.00;35.00;;;;;;2452320;53;20956;-70
2022/06/01 11:46:52;;;;;;;1.30;0.45;;;26.90;34.70;;;;;;2341010;54;21591;-69
2022/06/01 11:49:30;;;;;;;1.40;0.55;;;27.00;34.20;;;;;;2587257;53;21434;-69
2022/06/01 11:51:58;;;;;;;3.42;0.60;;;27.00;34.60;;;;;;2341159;54;21483;-70
2022/06/01 11:54:34;;;;;;;1.95;0.65;;;27.00;34.60;;;;;;2341045;53;20944;-70
2022/06/01 12:00:34;;;;;;;2.25;0.60;;;27.00;34.30;;;;;;2344255;53;21111;-70
2022/06/01 12:09:49;;;;;;;2.80;0.50;;;27.00;34.60;;;;;;2341646;54;20940;-71
2022/06/01 12:12:23;;;;;;;1.12;0.50;;;27.20;35.00;;;;;;2342607;53;20925;-70
2022/06/01 12:22:03;;;;;;;0.93;0.40;;;27.20;34.60;;;;;;2346113;53;21058;-70
2022/06/01 12:30:20;;;;;;;1.55;0.70;;;27.20;34.60;;;;;;2325862;54;20959;-71
2022/06/01 12:34:05;;;;;;;2.08;0.68;;;27.20;34.50;;;;;;2350985;53;21018;-71
2022/06/01 12:37:28;;;;;;;4.60;0.65;;;27.20;34.40;;;;;;2340990;54;20964;-71
2022/06/01 12:39:59;;;;;;;2.92;0.90;;;27.20;34.20;;;;;;2341185;53;21516;-69
2022/06/01 12:42:34;;;;;;;1.58;0.60;;;27.20;34.80;;;;;;2344380;54;20996;-70
2022/06/01 12:45:13;;;;;;;3.30;1.60;;;27.20;35.10;;;;;;2343524;53;21016;-71
2022/06/01 12:47:48;;;;;;;3.45;1.25;;;27.20;35.00;;;;;;2341147;54;21484;-70
2022/06/01 12:50:16;;;;;;;2.70;1.02;;;27.30;34.90;;;;;;2341260;54;20924;-71
2022/06/01 12:52:43;;;;;;;1.95;0.85;;;27.30;34.70;;;;;;2554352;53;21011;-70
2022/06/01 12:55:17;;;;;;;1.67;0.70;;;27.40;34.70;;;;;;2340826;54;21015;-70
2022/06/01 12:57:51;;;;;;;1.90;0.70;;;27.50;34.40;;;;;;2447896;53;21003;-71
2022/06/01 13:00:28;;;;;;;1.50;0.70;;;27.60;34.10;;;;;;2341511;54;21044;-71
2022/06/01 13:02:55;;;;;;;1.67;0.60;;;27.60;33.90;;;;;;2588085;53;20999;-70
2022/06/01 13:05:23;;;;;;;2.30;0.45;;;27.70;34.10;;;;;;2343141;53;21425;-71
2022/06/01 13:07:53;;;;;;;1.70;0.80;;;27.80;33.80;;;;;;2326329;54;20976;-71
2022/06/01 13:10:22;;;;;;;1.45;0.60;;;27.80;33.60;;;;;;2500662;53;21002;-70
2022/06/01 13:12:48;;;;;;;1.35;0.40;;;27.90;33.60;;;;;;2348318;53;20931;-69
2022/06/01 13:15:23;;;;;;;1.05;0.50;;;27.90;33.70;;;;;;2346972;53;21947;-70
2022/06/01 13:17:57;;;;;;;1.73;0.50;;;28.00;33.50;;;;;;2340755;54;20996;-69
2022/06/01 13:20:31;;;;;;;1.35;0.60;;;28.10;33.30;;;;;;2350619;53;21008;-70
2022/06/01 13:22:57;;;;;;;1.90;0.80;;;28.10;33.40;;;;;;2350771;53;20911;-69
2022/06/01 13:25:28;;;;;;;1.75;0.60;;;28.20;33.30;;;;;;2340671;54;20984;-70
2022/06/01 13:27:54;;;;;;;1.95;0.70;;;28.30;32.90;;;;;;2420815;53;21039;-70
2022/06/01 13:30:21;;;;;;;1.02;0.50;;;28.30;32.80;;;;;;2325466;54;21021;-71
2022/06/01 13:32:50;;;;;;;1.60;0.68;;;28.30;32.80;;;;;;2543614;53;21053;-70
2022/06/01 13:35:35;;;;;;;1.40;0.60;;;28.40;32.90;;;;;;2342702;53;20964;-69
2022/06/01 13:38:04;;;;;;;1.95;0.75;;;28.40;32.50;;;;;;2341556;54;20992;-69
2022/06/01 13:40:35;;;;;;;2.28;0.73;;;28.50;32.60;;;;;;2451578;53;20948;-69
2022/06/01 13:43:20;;;;;;;1.10;0.60;;;28.50;32.50;;;;;;2348114;53;21071;-71
2022/06/01 13:45:57;;;;;;;1.73;0.60;;;28.60;32.20;;;;;;2409577;53;21016;-70
2022/06/01 13:48:59;;;;;;;2.03;0.62;;;28.60;32.20;;;;;;2341689;54;21393;-69
2022/06/01 13:52:40;;;;;;;3.12;0.70;;;28.70;32.20;;;;;;2342157;54;21404;-70
2022/06/01 13:55:29;;;;;;;1.50;0.47;;;28.70;31.70;;;;;;2572467;53;20988;-70
2022/06/01 13:58:55;;;;;;;1.33;0.50;;;28.70;31.80;;;;;;2538995;53;20947;-70
2022/06/01 14:08:25;;;;;;;2.83;0.70;;;28.80;31.90;;;;;;2342141;53;21471;-71
2022/06/01 14:10:51;;;;;;;1.42;0.50;;;28.70;32.20;;;;;;2338806;53;20964;-70
2022/06/01 14:13:19;;;;;;;1.27;0.52;;;28.70;32.20;;;;;;2347903;53;20935;-71
2022/06/01 14:15:46;;;;;;;2.70;0.70;;;28.70;32.10;;;;;;2347393;53;20960;-70
2022/06/01 14:18:15;;;;;;;3.00;0.80;;;28.60;32.10;;;;;;2341010;53;21031;-70
2022/06/01 14:20:41;;;;;;;1.52;0.50;;;28.60;32.00;;;;;;2420795;53;21516;-70
2022/06/01 14:23:07;;;;;;;1.40;0.62;;;28.50;32.00;;;;;;2587157;53;21010;-71
2022/06/01 14:28:29;;;;;;;1.12;0.60;;;28.50;32.00;;;;;;2341135;54;21453;-69
2022/06/01 14:31:12;;;;;;;1.48;0.60;;;28.40;32.00;;;;;;2340727;54;21496;-70
2022/06/01 14:33:39;;;;;;;1.52;0.62;;;28.40;32.00;;;;;;2361211;53;21071;-70
2022/06/01 14:36:06;;;;;;;2.05;0.68;;;28.40;32.00;;;;;;2334740;53;20928;-69
2022/06/01 14:38:35;;;;;;;1.30;0.60;;;28.40;32.00;;;;;;2340910;54;20959;-70
2022/06/01 14:41:03;;;;;;;1.60;0.50;;;28.30;31.90;;;;;;2341616;54;20948;-71
2022/06/01 14:43:36;;;;;;;1.50;0.57;;;28.30;32.10;;;;;;2339599;54;20924;-70